sensor_id;sensor_type;location;lat;lon;timestamp;pressure;altitude;pressure_sealevel;temperature;humidity
2675;BME280;1347;42.122;24.746;2023-03-20T00:00:30;100034.03;;;6.53;82.06
2675;BME280;1347;42.122;24.746;2023-03-20T00:02:59;100040.56;;;6.61;81.98
2675;BME280;1347;42.122;24.746;2023-03-20T00:05:28;100036.19;;;6.69;81.42
2675;BME280;1347;42.122;24.746;2023-03-20T00:07:56;100028.47;;;6.71;81.38
2675;BME280;1347;42.122;24.746;2023-03-20T00:10:27;100021.22;;;6.75;80.97
2675;BME280;1347;42.122;24.746;2023-03-20T00:12:56;100020.75;;;6.73;80.99
2675;BME280;1347;42.122;24.746;2023-03-20T00:15:29;100022.22;;;6.70;81.08
2675;BME280;1347;42.122;24.746;2023-03-20T00:17:58;100023.63;;;6.76;80.83
2675;BME280;1347;42.122;24.746;2023-03-20T00:20:25;100019.78;;;6.77;80.66
2675;BME280;1347;42.122;24.746;2023-03-20T00:22:52;100008.06;;;6.77;80.98
2675;BME280;1347;42.122;24.746;2023-03-20T00:25:22;100001.97;;;6.59;81.50
2675;BME280;1347;42.122;24.746;2023-03-20T00:27:50;100004.75;;;6.50;81.65
2675;BME280;1347;42.122;24.746;2023-03-20T00:30:20;100006.84;;;6.45;81.87
2675;BME280;1347;42.122;24.746;2023-03-20T00:32:49;100002.09;;;6.33;82.67
2675;BME280;1347;42.122;24.746;2023-03-20T00:35:23;100006.25;;;6.39;82.11
2675;BME280;1347;42.122;24.746;2023-03-20T00:37:51;99998.25;;;6.34;82.45
2675;BME280;1347;42.122;24.746;2023-03-20T00:40:18;99993.50;;;6.22;83.04
2675;BME280;1347;42.122;24.746;2023-03-20T00:42:49;99990.25;;;6.38;82.59
2675;BME280;1347;42.122;24.746;2023-03-20T00:45:18;99993.28;;;6.36;82.47
2675;BME280;1347;42.122;24.746;2023-03-20T00:47:48;99993.56;;;6.43;82.33
2675;BME280;1347;42.122;24.746;2023-03-20T00:50:18;99988.72;;;6.49;82.29
2675;BME280;1347;42.122;24.746;2023-03-20T00:52:48;99995.28;;;6.48;82.33
2675;BME280;1347;42.122;24.746;2023-03-20T00:55:15;99985.06;;;6.45;82.33
2675;BME280;1347;42.122;24.746;2023-03-20T00:57:45;99987.47;;;6.46;82.34
2675;BME280;1347;42.122;24.746;2023-03-20T01:00:35;99985.00;;;6.53;82.45
2675;BME280;1347;42.122;24.746;2023-03-20T01:03:10;99987.50;;;6.38;82.97
2675;BME280;1347;42.122;24.746;2023-03-20T01:05:37;99985.44;;;6.35;82.72
2675;BME280;1347;42.122;24.746;2023-03-20T01:08:11;99988.31;;;6.38;82.62
2675;BME280;1347;42.122;24.746;2023-03-20T01:10:38;99989.72;;;6.44;82.42
2675;BME280;1347;42.122;24.746;2023-03-20T01:13:14;99990.09;;;6.34;82.75
2675;BME280;1347;42.122;24.746;2023-03-20T01:15:43;99986.16;;;6.23;83.13
2675;BME280;1347;42.122;24.746;2023-03-20T01:18:11;99981.78;;;6.01;83.64
2675;BME280;1347;42.122;24.746;2023-03-20T01:20:38;99982.28;;;5.95;83.33
2675;BME280;1347;42.122;24.746;2023-03-20T01:23:07;99979.25;;;5.96;83.10
2675;BME280;1347;42.122;24.746;2023-03-20T01:25:35;99970.94;;;5.84;83.20
2675;BME280;1347;42.122;24.746;2023-03-20T01:28:03;99967.66;;;5.70;83.61
2675;BME280;1347;42.122;24.746;2023-03-20T01:30:37;99974.81;;;5.74;83.63
2675;BME280;1347;42.122;24.746;2023-03-20T01:33:11;99969.25;;;5.62;83.82
2675;BME280;1347;42.122;24.746;2023-03-20T01:35:39;99962.09;;;5.58;83.35
2675;BME280;1347;42.122;24.746;2023-03-20T01:38:11;99965.84;;;5.36;84.62
2675;BME280;1347;42.122;24.746;2023-03-20T01:40:44;99963.13;;;5.36;84.29
2675;BME280;1347;42.122;24.746;2023-03-20T01:43:15;99966.00;;;5.31;84.47
2675;BME280;1347;42.122;24.746;2023-03-20T01:45:49;99965.53;;;5.29;84.02
2675;BME280;1347;42.122;24.746;2023-03-20T01:48:17;99959.28;;;5.19;83.94
2675;BME280;1347;42.122;24.746;2023-03-20T01:50:44;99967.47;;;5.02;83.98
2675;BME280;1347;42.122;24.746;2023-03-20T01:53:15;99964.28;;;5.09;83.54
2675;BME280;1347;42.122;24.746;2023-03-20T01:55:44;99955.00;;;5.01;83.93
2675;BME280;1347;42.122;24.746;2023-03-20T01:58:14;99962.22;;;5.06;84.19
2675;BME280;1347;42.122;24.746;2023-03-20T02:00:43;99957.25;;;5.16;84.50
2675;BME280;1347;42.122;24.746;2023-03-20T02:03:11;99959.19;;;5.07;85.42
2675;BME280;1347;42.122;24.746;2023-03-20T02:05:38;99963.81;;;5.07;84.75
2675;BME280;1347;42.122;24.746;2023-03-20T02:08:14;99961.13;;;4.98;85.28
2675;BME280;1347;42.122;24.746;2023-03-20T02:10:44;99963.50;;;5.08;85.00
2675;BME280;1347;42.122;24.746;2023-03-20T02:13:12;99960.28;;;5.15;84.91
2675;BME280;1347;42.122;24.746;2023-03-20T02:15:55;99960.56;;;5.22;85.48
2675;BME280;1347;42.122;24.746;2023-03-20T02:18:23;99962.16;;;5.32;85.51
2675;BME280;1347;42.122;24.746;2023-03-20T02:21:08;99962.66;;;5.25;86.21
2675;BME280;1347;42.122;24.746;2023-03-20T02:27:05;99962.69;;;5.08;86.19
2675;BME280;1347;42.122;24.746;2023-03-20T02:29:58;99956.44;;;4.99;86.33
2675;BME280;1347;42.122;24.746;2023-03-20T02:39:01;99950.69;;;5.00;86.96
2675;BME280;1347;42.122;24.746;2023-03-20T02:41:36;99950.09;;;4.86;87.43
2675;BME280;1347;42.122;24.746;2023-03-20T02:44:09;99945.94;;;4.80;85.56
2675;BME280;1347;42.122;24.746;2023-03-20T02:46:44;99946.44;;;4.48;86.74
2675;BME280;1347;42.122;24.746;2023-03-20T02:49:22;99940.81;;;4.44;87.45
2675;BME280;1347;42.122;24.746;2023-03-20T02:51:57;99942.88;;;4.38;87.03
2675;BME280;1347;42.122;24.746;2023-03-20T02:54:35;99942.56;;;4.31;87.34
2675;BME280;1347;42.122;24.746;2023-03-20T02:57:06;99951.50;;;4.32;87.12
2675;BME280;1347;42.122;24.746;2023-03-20T02:59:39;99946.06;;;4.32;87.30
2675;BME280;1347;42.122;24.746;2023-03-20T03:02:08;99942.88;;;4.30;87.23
2675;BME280;1347;42.122;24.746;2023-03-20T03:04:38;99943.97;;;4.20;87.51
2675;BME280;1347;42.122;24.746;2023-03-20T03:07:08;99938.72;;;4.15;87.53
2675;BME280;1347;42.122;24.746;2023-03-20T03:09:42;99935.69;;;4.17;87.28
2675;BME280;1347;42.122;24.746;2023-03-20T03:12:15;99940.94;;;4.13;87.61
2675;BME280;1347;42.122;24.746;2023-03-20T03:14:45;99938.22;;;4.13;87.43
2675;BME280;1347;42.122;24.746;2023-03-20T03:17:14;99941.41;;;4.15;87.21
2675;BME280;1347;42.122;24.746;2023-03-20T03:19:45;99940.25;;;4.07;87.61
2675;BME280;1347;42.122;24.746;2023-03-20T03:22:14;99942.53;;;4.05;88.48
2675;BME280;1347;42.122;24.746;2023-03-20T03:24:44;99942.97;;;4.07;89.01
2675;BME280;1347;42.122;24.746;2023-03-20T03:27:15;99933.78;;;4.17;88.24
2675;BME280;1347;42.122;24.746;2023-03-20T03:29:46;99931.06;;;4.26;88.86
2675;BME280;1347;42.122;24.746;2023-03-20T03:32:24;99943.84;;;4.34;90.01
2675;BME280;1347;42.122;24.746;2023-03-20T03:34:51;99949.28;;;4.42;89.31
2675;BME280;1347;42.122;24.746;2023-03-20T03:37:25;99937.31;;;4.35;88.57
2675;BME280;1347;42.122;24.746;2023-03-20T03:40:02;99944.78;;;4.38;88.17
2675;BME280;1347;42.122;24.746;2023-03-20T03:42:38;99945.75;;;4.42;88.04
2675;BME280;1347;42.122;24.746;2023-03-20T03:45:09;99939.84;;;4.40;87.99
2675;BME280;1347;42.122;24.746;2023-03-20T03:47:43;99942.84;;;4.21;89.55
2675;BME280;1347;42.122;24.746;2023-03-20T03:50:15;99941.44;;;4.32;89.26
2675;BME280;1347;42.122;24.746;2023-03-20T03:52:45;99943.19;;;4.28;89.97
2675;BME280;1347;42.122;24.746;2023-03-20T03:55:20;99941.31;;;4.37;89.71
2675;BME280;1347;42.122;24.746;2023-03-20T03:57:51;99943.84;;;4.42;89.65
2675;BME280;1347;42.122;24.746;2023-03-20T04:00:22;99943.69;;;4.39;90.49
2675;BME280;1347;42.122;24.746;2023-03-20T04:02:53;99952.78;;;4.43;91.20
2675;BME280;1347;42.122;24.746;2023-03-20T04:05:23;99944.34;;;4.53;90.55
2675;BME280;1347;42.122;24.746;2023-03-20T04:07:54;99949.94;;;4.57;90.77
2675;BME280;1347;42.122;24.746;2023-03-20T04:10:22;99944.34;;;4.62;90.44
2675;BME280;1347;42.122;24.746;2023-03-20T04:12:50;99945.44;;;4.61;90.32
2675;BME280;1347;42.122;24.746;2023-03-20T04:15:17;99945.00;;;4.67;90.41
2675;BME280;1347;42.122;24.746;2023-03-20T04:17:44;99949.75;;;4.70;90.20
2675;BME280;1347;42.122;24.746;2023-03-20T04:20:12;99943.38;;;4.66;90.41
2675;BME280;1347;42.122;24.746;2023-03-20T04:22:39;99946.56;;;4.60;90.77
2675;BME280;1347;42.122;24.746;2023-03-20T04:25:08;99944.66;;;4.60;90.71
2675;BME280;1347;42.122;24.746;2023-03-20T04:27:37;99941.00;;;4.65;90.35
2675;BME280;1347;42.122;24.746;2023-03-20T04:30:05;99942.28;;;4.67;90.62
2675;BME280;1347;42.122;24.746;2023-03-20T04:32:32;99949.13;;;4.65;90.50
2675;BME280;1347;42.122;24.746;2023-03-20T04:34:59;99941.94;;;4.60;90.43
2675;BME280;1347;42.122;24.746;2023-03-20T04:37:26;99939.38;;;4.64;90.14
2675;BME280;1347;42.122;24.746;2023-03-20T04:39:52;99941.78;;;4.65;90.49
2675;BME280;1347;42.122;24.746;2023-03-20T04:42:19;99946.56;;;4.68;89.91
2675;BME280;1347;42.122;24.746;2023-03-20T04:44:47;99942.09;;;4.72;89.75
2675;BME280;1347;42.122;24.746;2023-03-20T04:47:14;99942.75;;;4.78;89.78
2675;BME280;1347;42.122;24.746;2023-03-20T04:49:41;99946.56;;;4.86;89.32
2675;BME280;1347;42.122;24.746;2023-03-20T04:52:08;99951.69;;;4.87;89.38
2675;BME280;1347;42.122;24.746;2023-03-20T04:54:35;99954.06;;;4.89;89.74
2675;BME280;1347;42.122;24.746;2023-03-20T04:57:02;99957.25;;;4.91;89.70
2675;BME280;1347;42.122;24.746;2023-03-20T04:59:29;99955.66;;;4.90;89.70
2675;BME280;1347;42.122;24.746;2023-03-20T05:01:57;99958.84;;;5.00;88.91
2675;BME280;1347;42.122;24.746;2023-03-20T05:04:24;99963.50;;;5.08;88.42
2675;BME280;1347;42.122;24.746;2023-03-20T05:06:52;99960.44;;;5.10;88.21
2675;BME280;1347;42.122;24.746;2023-03-20T05:09:19;99962.38;;;4.92;87.70
2675;BME280;1347;42.122;24.746;2023-03-20T05:11:45;99954.25;;;4.66;87.73
2675;BME280;1347;42.122;24.746;2023-03-20T05:14:12;99959.19;;;4.47;87.99
2675;BME280;1347;42.122;24.746;2023-03-20T05:16:39;99960.44;;;4.24;88.78
2675;BME280;1347;42.122;24.746;2023-03-20T05:19:08;99964.88;;;4.20;89.06
2675;BME280;1347;42.122;24.746;2023-03-20T05:21:34;99961.84;;;4.13;89.64
2675;BME280;1347;42.122;24.746;2023-03-20T05:24:01;99954.31;;;4.01;91.01
2675;BME280;1347;42.122;24.746;2023-03-20T05:26:28;99958.34;;;4.21;90.01
2675;BME280;1347;42.122;24.746;2023-03-20T05:28:55;99951.31;;;4.20;90.21
2675;BME280;1347;42.122;24.746;2023-03-20T05:31:22;99957.88;;;4.27;90.48
2675;BME280;1347;42.122;24.746;2023-03-20T05:33:49;99961.72;;;4.35;90.25
2675;BME280;1347;42.122;24.746;2023-03-20T05:36:17;99959.16;;;4.38;90.56
2675;BME280;1347;42.122;24.746;2023-03-20T05:38:44;99958.41;;;4.47;90.37
2675;BME280;1347;42.122;24.746;2023-03-20T05:41:11;99956.31;;;4.52;90.48
2675;BME280;1347;42.122;24.746;2023-03-20T05:43:38;99957.75;;;4.75;90.50
2675;BME280;1347;42.122;24.746;2023-03-20T05:46:05;99959.97;;;5.16;89.88
2675;BME280;1347;42.122;24.746;2023-03-20T05:48:32;99956.34;;;5.59;88.91
2675;BME280;1347;42.122;24.746;2023-03-20T05:50:59;99958.38;;;6.09;86.05
2675;BME280;1347;42.122;24.746;2023-03-20T05:53:27;99958.09;;;6.52;85.21
2675;BME280;1347;42.122;24.746;2023-03-20T05:55:54;99953.75;;;6.92;83.04
2675;BME280;1347;42.122;24.746;2023-03-20T05:58:21;99955.59;;;7.21;80.18
2675;BME280;1347;42.122;24.746;2023-03-20T06:00:48;99959.75;;;7.52;79.62
2675;BME280;1347;42.122;24.746;2023-03-20T06:03:15;99953.19;;;7.77;77.95
2675;BME280;1347;42.122;24.746;2023-03-20T06:05:43;99962.41;;;8.21;77.13
2675;BME280;1347;42.122;24.746;2023-03-20T06:08:11;99958.44;;;8.43;75.21
2675;BME280;1347;42.122;24.746;2023-03-20T06:10:39;99956.81;;;8.94;74.65
2675;BME280;1347;42.122;24.746;2023-03-20T06:13:06;99959.25;;;8.83;73.58
2675;BME280;1347;42.122;24.746;2023-03-20T06:15:33;99961.38;;;9.46;71.89
2675;BME280;1347;42.122;24.746;2023-03-20T06:18:00;99958.28;;;9.79;70.75
2675;BME280;1347;42.122;24.746;2023-03-20T06:20:27;99949.53;;;10.05;68.87
2675;BME280;1347;42.122;24.746;2023-03-20T06:22:53;99955.28;;;10.00;69.53
2675;BME280;1347;42.122;24.746;2023-03-20T06:25:20;99961.19;;;10.17;67.83
2675;BME280;1347;42.122;24.746;2023-03-20T06:27:49;99961.91;;;11.03;65.39
2675;BME280;1347;42.122;24.746;2023-03-20T06:30:16;99964.19;;;12.31;62.70
2675;BME280;1347;42.122;24.746;2023-03-20T06:32:43;99963.44;;;13.20;59.54
2675;BME280;1347;42.122;24.746;2023-03-20T06:35:11;99960.34;;;14.10;55.86
2675;BME280;1347;42.122;24.746;2023-03-20T06:37:38;99961.03;;;15.41;52.29
2675;BME280;1347;42.122;24.746;2023-03-20T06:40:06;99961.84;;;16.59;49.06
2675;BME280;1347;42.122;24.746;2023-03-20T06:42:34;99958.69;;;17.58;46.69
2675;BME280;1347;42.122;24.746;2023-03-20T06:45:03;99960.19;;;17.77;45.26
2675;BME280;1347;42.122;24.746;2023-03-20T06:47:31;99946.69;;;17.79;44.70
2675;BME280;1347;42.122;24.746;2023-03-20T06:49:57;99956.75;;;18.52;44.20
2675;BME280;1347;42.122;24.746;2023-03-20T06:52:24;99960.19;;;20.58;41.15
2675;BME280;1347;42.122;24.746;2023-03-20T06:54:51;99951.56;;;22.00;38.17
2675;BME280;1347;42.122;24.746;2023-03-20T06:57:18;99965.03;;;22.05;37.48
2675;BME280;1347;42.122;24.746;2023-03-20T06:59:45;99957.97;;;23.20;35.57
2675;BME280;1347;42.122;24.746;2023-03-20T07:02:13;99959.72;;;23.13;35.38
2675;BME280;1347;42.122;24.746;2023-03-20T07:04:40;99954.19;;;23.64;34.89
2675;BME280;1347;42.122;24.746;2023-03-20T07:07:07;99961.25;;;25.10;33.56
2675;BME280;1347;42.122;24.746;2023-03-20T07:09:34;99955.06;;;26.35;31.42
2675;BME280;1347;42.122;24.746;2023-03-20T07:12:01;99962.19;;;28.12;29.62
2675;BME280;1347;42.122;24.746;2023-03-20T07:14:29;99959.97;;;28.64;28.67
2675;BME280;1347;42.122;24.746;2023-03-20T07:16:56;99955.22;;;27.14;29.95
2675;BME280;1347;42.122;24.746;2023-03-20T07:19:24;99963.94;;;24.57;32.64
2675;BME280;1347;42.122;24.746;2023-03-20T07:21:55;99957.25;;;21.96;35.46
2675;BME280;1347;42.122;24.746;2023-03-20T07:24:26;99958.13;;;23.79;33.92
2675;BME280;1347;42.122;24.746;2023-03-20T07:26:53;99958.41;;;24.32;32.79
2675;BME280;1347;42.122;24.746;2023-03-20T07:29:20;99954.50;;;25.08;32.16
2675;BME280;1347;42.122;24.746;2023-03-20T07:31:46;99943.75;;;24.63;32.52
2675;BME280;1347;42.122;24.746;2023-03-20T07:34:13;99946.56;;;24.03;33.21
2675;BME280;1347;42.122;24.746;2023-03-20T07:36:42;99945.25;;;23.02;34.40
2675;BME280;1347;42.122;24.746;2023-03-20T07:39:09;99939.69;;;23.15;34.78
2675;BME280;1347;42.122;24.746;2023-03-20T07:41:37;99937.03;;;23.24;34.41
2675;BME280;1347;42.122;24.746;2023-03-20T07:44:04;99931.56;;;22.63;35.16
2675;BME280;1347;42.122;24.746;2023-03-20T07:46:32;99931.13;;;23.47;34.38
2675;BME280;1347;42.122;24.746;2023-03-20T07:48:59;99931.56;;;24.44;33.04
2675;BME280;1347;42.122;24.746;2023-03-20T07:51:26;99930.75;;;25.92;31.45
2675;BME280;1347;42.122;24.746;2023-03-20T07:53:55;99945.75;;;27.87;29.06
2675;BME280;1347;42.122;24.746;2023-03-20T07:56:21;99944.63;;;28.41;28.43
2675;BME280;1347;42.122;24.746;2023-03-20T07:58:48;99939.94;;;30.34;27.37
2675;BME280;1347;42.122;24.746;2023-03-20T08:01:15;99942.28;;;31.28;26.81
2675;BME280;1347;42.122;24.746;2023-03-20T08:03:42;99932.28;;;31.07;26.13
2675;BME280;1347;42.122;24.746;2023-03-20T08:06:09;99937.44;;;32.03;25.44
2675;BME280;1347;42.122;24.746;2023-03-20T08:08:36;99931.19;;;32.36;25.30
2675;BME280;1347;42.122;24.746;2023-03-20T08:11:04;99937.88;;;32.33;24.30
2675;BME280;1347;42.122;24.746;2023-03-20T08:13:31;99928.53;;;31.78;24.84
2675;BME280;1347;42.122;24.746;2023-03-20T08:15:59;99922.75;;;32.04;24.46
2675;BME280;1347;42.122;24.746;2023-03-20T08:18:26;99926.47;;;33.03;23.67
2675;BME280;1347;42.122;24.746;2023-03-20T08:20:53;99929.03;;;34.02;23.62
2675;BME280;1347;42.122;24.746;2023-03-20T08:23:20;99930.84;;;34.68;22.86
2675;BME280;1347;42.122;24.746;2023-03-20T08:25:48;99933.00;;;34.51;22.68
2675;BME280;1347;42.122;24.746;2023-03-20T08:28:17;99932.59;;;34.19;22.89
2675;BME280;1347;42.122;24.746;2023-03-20T08:30:44;99928.63;;;35.62;22.27
2675;BME280;1347;42.122;24.746;2023-03-20T08:33:12;99926.34;;;35.25;21.80
2675;BME280;1347;42.122;24.746;2023-03-20T08:35:39;99933.16;;;34.01;22.64
2675;BME280;1347;42.122;24.746;2023-03-20T08:38:10;99934.16;;;34.14;22.55
2675;BME280;1347;42.122;24.746;2023-03-20T08:40:39;99921.56;;;33.09;23.29
2675;BME280;1347;42.122;24.746;2023-03-20T08:43:06;99917.53;;;32.40;23.83
2675;BME280;1347;42.122;24.746;2023-03-20T08:45:34;99915.09;;;32.75;24.17
2675;BME280;1347;42.122;24.746;2023-03-20T08:48:01;99913.16;;;30.50;24.97
2675;BME280;1347;42.122;24.746;2023-03-20T08:50:29;99908.00;;;28.79;26.98
2675;BME280;1347;42.122;24.746;2023-03-20T08:52:56;99902.66;;;28.19;27.47
2675;BME280;1347;42.122;24.746;2023-03-20T08:55:22;99897.19;;;29.07;26.95
2675;BME280;1347;42.122;24.746;2023-03-20T08:57:49;99893.66;;;28.83;26.75
2675;BME280;1347;42.122;24.746;2023-03-20T09:00:18;99906.53;;;29.78;25.77
2675;BME280;1347;42.122;24.746;2023-03-20T09:02:46;99894.22;;;28.58;26.85
2675;BME280;1347;42.122;24.746;2023-03-20T09:05:13;99888.09;;;28.74;26.93
2675;BME280;1347;42.122;24.746;2023-03-20T09:07:40;99893.28;;;29.19;26.64
2675;BME280;1347;42.122;24.746;2023-03-20T09:10:09;99885.63;;;29.90;26.30
2675;BME280;1347;42.122;24.746;2023-03-20T09:12:36;99889.88;;;30.61;25.50
2675;BME280;1347;42.122;24.746;2023-03-20T09:15:04;99884.22;;;31.44;24.65
2675;BME280;1347;42.122;24.746;2023-03-20T09:17:31;99886.97;;;33.55;23.55
2675;BME280;1347;42.122;24.746;2023-03-20T09:20:00;99885.22;;;35.45;21.93
2675;BME280;1347;42.122;24.746;2023-03-20T09:22:26;99887.59;;;34.69;22.18
2675;BME280;1347;42.122;24.746;2023-03-20T09:24:53;99874.94;;;35.90;21.20
2675;BME280;1347;42.122;24.746;2023-03-20T09:27:20;99878.78;;;35.09;21.86
2675;BME280;1347;42.122;24.746;2023-03-20T09:29:47;99879.16;;;33.73;23.08
2675;BME280;1347;42.122;24.746;2023-03-20T09:32:14;99866.56;;;32.08;24.30
2675;BME280;1347;42.122;24.746;2023-03-20T09:34:41;99870.44;;;32.87;24.03
2675;BME280;1347;42.122;24.746;2023-03-20T09:37:10;99869.00;;;32.32;24.66
2675;BME280;1347;42.122;24.746;2023-03-20T09:39:37;99865.97;;;32.52;24.58
2675;BME280;1347;42.122;24.746;2023-03-20T09:42:09;99861.03;;;33.92;23.33
2675;BME280;1347;42.122;24.746;2023-03-20T09:44:48;99858.06;;;33.07;23.80
2675;BME280;1347;42.122;24.746;2023-03-20T09:47:23;99851.91;;;31.67;24.58
2675;BME280;1347;42.122;24.746;2023-03-20T09:50:04;99845.00;;;31.37;25.07
2675;BME280;1347;42.122;24.746;2023-03-20T09:52:38;99837.44;;;30.19;26.07
2675;BME280;1347;42.122;24.746;2023-03-20T09:55:12;99833.75;;;31.91;24.92
2675;BME280;1347;42.122;24.746;2023-03-20T09:57:41;99841.75;;;34.21;23.28
2675;BME280;1347;42.122;24.746;2023-03-20T10:00:12;99837.78;;;29.66;26.55
2675;BME280;1347;42.122;24.746;2023-03-20T10:02:45;99828.44;;;29.60;26.39
2675;BME280;1347;42.122;24.746;2023-03-20T10:05:20;99826.56;;;32.01;25.04
2675;BME280;1347;42.122;24.746;2023-03-20T10:07:49;99826.59;;;34.54;23.03
2675;BME280;1347;42.122;24.746;2023-03-20T10:10:17;99826.59;;;34.02;23.21
2675;BME280;1347;42.122;24.746;2023-03-20T10:12:56;99816.94;;;33.19;23.91
2675;BME280;1347;42.122;24.746;2023-03-20T10:15:35;99818.53;;;32.92;24.16
2675;BME280;1347;42.122;24.746;2023-03-20T10:18:11;99810.47;;;34.62;23.45
2675;BME280;1347;42.122;24.746;2023-03-20T10:20:43;99814.84;;;33.53;23.54
2675;BME280;1347;42.122;24.746;2023-03-20T10:23:19;99803.34;;;30.80;25.29
2675;BME280;1347;42.122;24.746;2023-03-20T10:25:52;99794.34;;;30.04;26.67
2675;BME280;1347;42.122;24.746;2023-03-20T10:28:23;99800.69;;;32.52;24.47
2675;BME280;1347;42.122;24.746;2023-03-20T10:30:59;99792.84;;;33.76;23.72
2675;BME280;1347;42.122;24.746;2023-03-20T10:33:39;99791.84;;;34.96;22.74
2675;BME280;1347;42.122;24.746;2023-03-20T10:36:19;99787.72;;;33.52;22.94
2675;BME280;1347;42.122;24.746;2023-03-20T10:39:00;99785.00;;;33.93;22.82
2675;BME280;1347;42.122;24.746;2023-03-20T10:41:34;99771.00;;;33.09;23.53
2675;BME280;1347;42.122;24.746;2023-03-20T10:44:04;99762.16;;;31.53;24.50
2675;BME280;1347;42.122;24.746;2023-03-20T10:46:40;99762.59;;;30.41;26.26
2675;BME280;1347;42.122;24.746;2023-03-20T10:49:13;99760.69;;;29.10;27.06
2675;BME280;1347;42.122;24.746;2023-03-20T10:51:47;99743.72;;;28.46;28.36
2675;BME280;1347;42.122;24.746;2023-03-20T10:54:23;99733.75;;;26.96;29.55
2675;BME280;1347;42.122;24.746;2023-03-20T10:56:52;99732.22;;;27.67;28.52
2675;BME280;1347;42.122;24.746;2023-03-20T10:59:22;99729.09;;;28.03;29.33
2675;BME280;1347;42.122;24.746;2023-03-20T11:01:50;99733.38;;;27.36;29.13
2675;BME280;1347;42.122;24.746;2023-03-20T11:04:17;99720.34;;;27.87;29.08
2675;BME280;1347;42.122;24.746;2023-03-20T11:06:47;99715.34;;;27.67;29.05
2675;BME280;1347;42.122;24.746;2023-03-20T11:09:19;99702.75;;;26.03;30.27
2675;BME280;1347;42.122;24.746;2023-03-20T11:11:50;99689.94;;;25.47;31.60
2675;BME280;1347;42.122;24.746;2023-03-20T11:14:20;99694.84;;;24.27;32.80
2675;BME280;1347;42.122;24.746;2023-03-20T11:16:48;99691.50;;;24.41;32.35
2675;BME280;1347;42.122;24.746;2023-03-20T11:19:18;99693.59;;;24.99;31.47
2675;BME280;1347;42.122;24.746;2023-03-20T11:21:47;99679.22;;;24.87;31.19
2675;BME280;1347;42.122;24.746;2023-03-20T11:24:25;99676.78;;;23.84;32.81
2675;BME280;1347;42.122;24.746;2023-03-20T11:27:04;99678.47;;;24.03;32.58
2675;BME280;1347;42.122;24.746;2023-03-20T11:29:32;99670.53;;;24.24;32.37
2675;BME280;1347;42.122;24.746;2023-03-20T11:32:04;99660.44;;;24.26;32.34
2675;BME280;1347;42.122;24.746;2023-03-20T11:34:35;99659.56;;;24.78;31.16
2675;BME280;1347;42.122;24.746;2023-03-20T11:37:12;99655.19;;;24.77;31.55
2675;BME280;1347;42.122;24.746;2023-03-20T11:39:53;99644.41;;;24.67;32.18
2675;BME280;1347;42.122;24.746;2023-03-20T11:42:25;99638.75;;;24.98;31.87
2675;BME280;1347;42.122;24.746;2023-03-20T11:44:57;99633.00;;;25.10;31.41
2675;BME280;1347;42.122;24.746;2023-03-20T11:47:26;99631.47;;;23.98;32.84
2675;BME280;1347;42.122;24.746;2023-03-20T11:49:55;99625.25;;;24.03;32.52
2675;BME280;1347;42.122;24.746;2023-03-20T11:52:24;99619.28;;;23.92;33.07
2675;BME280;1347;42.122;24.746;2023-03-20T11:54:55;99626.22;;;23.78;33.15
2675;BME280;1347;42.122;24.746;2023-03-20T11:57:30;99613.63;;;23.83;33.74
2675;BME280;1347;42.122;24.746;2023-03-20T12:00:02;99613.41;;;24.61;32.25
2675;BME280;1347;42.122;24.746;2023-03-20T12:02:30;99596.78;;;26.03;31.14
2675;BME280;1347;42.122;24.746;2023-03-20T12:04:59;99613.72;;;27.17;29.58
2675;BME280;1347;42.122;24.746;2023-03-20T12:07:28;99609.91;;;27.59;29.61
2675;BME280;1347;42.122;24.746;2023-03-20T12:10:00;99600.09;;;26.68;30.37
2675;BME280;1347;42.122;24.746;2023-03-20T12:12:38;99596.69;;;26.22;30.80
2675;BME280;1347;42.122;24.746;2023-03-20T12:15:14;99595.09;;;25.79;31.13
2675;BME280;1347;42.122;24.746;2023-03-20T12:17:46;99585.00;;;25.26;31.54
2675;BME280;1347;42.122;24.746;2023-03-20T12:20:30;99587.00;;;25.81;31.52
2675;BME280;1347;42.122;24.746;2023-03-20T12:23:21;99594.97;;;26.33;30.56
2675;BME280;1347;42.122;24.746;2023-03-20T12:25:56;99587.97;;;26.20;31.40
2675;BME280;1347;42.122;24.746;2023-03-20T12:28:31;99583.91;;;25.70;31.37
2675;BME280;1347;42.122;24.746;2023-03-20T12:31:10;99583.44;;;25.25;31.65
2675;BME280;1347;42.122;24.746;2023-03-20T12:33:44;99575.25;;;25.91;31.77
2675;BME280;1347;42.122;24.746;2023-03-20T12:36:16;99573.69;;;26.42;30.84
2675;BME280;1347;42.122;24.746;2023-03-20T12:38:44;99574.72;;;27.01;30.40
2675;BME280;1347;42.122;24.746;2023-03-20T12:41:14;99568.47;;;27.59;29.39
2675;BME280;1347;42.122;24.746;2023-03-20T12:46:34;99565.91;;;27.08;29.23
2675;BME280;1347;42.122;24.746;2023-03-20T12:49:19;99560.94;;;27.27;29.04
2675;BME280;1347;42.122;24.746;2023-03-20T12:51:59;99561.41;;;27.25;29.73
2675;BME280;1347;42.122;24.746;2023-03-20T12:54:42;99557.91;;;27.30;29.43
2675;BME280;1347;42.122;24.746;2023-03-20T12:57:20;99557.63;;;27.28;29.75
2675;BME280;1347;42.122;24.746;2023-03-20T13:00:04;99550.66;;;27.00;30.19
2675;BME280;1347;42.122;24.746;2023-03-20T13:02:43;99550.97;;;27.70;29.15
2675;BME280;1347;42.122;24.746;2023-03-20T13:05:32;99545.81;;;27.54;28.76
2675;BME280;1347;42.122;24.746;2023-03-20T13:08:16;99548.06;;;27.11;29.48
2675;BME280;1347;42.122;24.746;2023-03-20T13:10:55;99539.09;;;26.17;29.63
2675;BME280;1347;42.122;24.746;2023-03-20T13:13:30;99535.13;;;26.00;29.77
2675;BME280;1347;42.122;24.746;2023-03-20T13:16:10;99527.22;;;26.55;29.50
2675;BME280;1347;42.122;24.746;2023-03-20T13:18:46;99532.50;;;27.54;29.22
2675;BME280;1347;42.122;24.746;2023-03-20T13:21:23;99525.25;;;27.62;28.20
2675;BME280;1347;42.122;24.746;2023-03-20T13:23:58;99522.22;;;27.80;28.48
2675;BME280;1347;42.122;24.746;2023-03-20T13:26:35;99524.69;;;27.20;28.24
2675;BME280;1347;42.122;24.746;2023-03-20T13:29:09;99521.53;;;27.27;28.31
2675;BME280;1347;42.122;24.746;2023-03-20T13:31:55;99519.34;;;26.02;30.14
2675;BME280;1347;42.122;24.746;2023-03-20T13:34:35;99515.84;;;25.84;29.86
2675;BME280;1347;42.122;24.746;2023-03-20T13:37:14;99513.78;;;25.33;30.68
2675;BME280;1347;42.122;24.746;2023-03-20T13:39:46;99506.13;;;24.79;31.47
2675;BME280;1347;42.122;24.746;2023-03-20T13:42:16;99503.03;;;25.22;31.11
2675;BME280;1347;42.122;24.746;2023-03-20T13:44:48;99499.41;;;25.40;30.83